createdAt,value
2022-12-23T00:01:04.347Z,7.12
2022-12-23T00:04:16.267Z,7.10
2022-12-23T00:07:28.428Z,7.12
2022-12-23T00:10:42.041Z,7.15
2022-12-23T00:14:09.353Z,7.08
2022-12-23T00:17:23.415Z,7.08
2022-12-23T00:20:35.750Z,7.03
2022-12-23T00:23:50.484Z,6.99
2022-12-23T00:27:02.456Z,6.93
2022-12-23T00:30:17.468Z,6.90
2022-12-23T00:33:34.296Z,6.83
2022-12-23T00:36:46.473Z,6.74
2022-12-23T00:40:12.965Z,6.66
2022-12-23T00:43:25.157Z,6.60
2022-12-23T00:46:38.062Z,6.57
2022-12-23T00:49:50.084Z,6.54
2022-12-23T00:53:02.638Z,6.50
2022-12-23T00:56:15.176Z,6.47
2022-12-23T00:59:27.507Z,6.42
2022-12-23T01:02:54.287Z,6.40
2022-12-23T01:06:08.003Z,6.34
2022-12-23T01:09:20.623Z,6.25
2022-12-23T01:12:32.643Z,6.11
2022-12-23T01:15:44.764Z,6.01
2022-12-23T01:18:58.790Z,5.94
2022-12-23T01:22:11.335Z,5.86
2022-12-23T01:25:23.841Z,5.77
2022-12-23T01:28:38.753Z,5.69
2022-12-23T01:31:52.656Z,5.62
2022-12-23T01:35:04.876Z,5.56
2022-12-23T01:38:18.478Z,5.53
2022-12-23T01:41:49.376Z,5.49
2022-12-23T01:45:05.291Z,5.45
2022-12-23T01:48:22.066Z,5.40
2022-12-23T01:51:36.429Z,5.42
2022-12-23T01:54:50.025Z,5.44
2022-12-23T01:58:17.026Z,5.43
2022-12-23T02:01:44.793Z,5.41
2022-12-23T02:04:58.400Z,5.42
2022-12-23T02:08:25.155Z,5.44
2022-12-23T02:11:56.296Z,5.46
2022-12-23T02:15:46.636Z,5.53
2022-12-23T02:19:20.670Z,5.57
2022-12-23T02:22:55.378Z,5.57
2022-12-23T02:26:27.888Z,5.59
2022-12-23T02:30:28.017Z,5.57
2022-12-23T02:33:53.933Z,5.59
2022-12-23T02:37:11.730Z,5.63
2022-12-23T02:40:31.002Z,5.64
2022-12-23T02:43:49.963Z,5.71
2022-12-23T02:47:07.341Z,5.72
2022-12-23T02:50:24.777Z,5.61
2022-12-23T02:53:42.113Z,5.46
2022-12-23T02:56:57.296Z,5.40
2022-12-23T03:00:11.490Z,5.51
2022-12-23T03:03:23.545Z,5.57
2022-12-23T03:06:39.897Z,5.62
2022-12-23T03:09:59.163Z,5.62
2022-12-23T03:13:19.065Z,5.55
2022-12-23T03:16:36.272Z,5.51
2022-12-23T03:19:50.574Z,5.41
2022-12-23T03:23:10.381Z,5.28
2022-12-23T03:26:26.224Z,5.20
2022-12-23T03:29:43.762Z,5.21
2022-12-23T03:33:00.363Z,5.32
2022-12-23T03:36:17.459Z,5.39
2022-12-23T03:39:30.403Z,5.44
2022-12-23T03:42:46.711Z,5.47
2022-12-23T03:46:03.831Z,5.51
2022-12-23T03:49:20.509Z,5.54
2022-12-23T03:52:37.568Z,5.54
2022-12-23T03:55:51.169Z,5.58
2022-12-23T03:59:10.221Z,5.58
2022-12-23T04:02:29.203Z,5.36
2022-12-23T04:05:45.035Z,5.14
2022-12-23T04:08:58.516Z,4.96
2022-12-23T04:12:13.295Z,4.86
2022-12-23T04:15:30.410Z,4.82
2022-12-23T04:18:42.459Z,4.74
2022-12-23T04:21:54.708Z,4.77
2022-12-23T04:25:06.776Z,4.76
2022-12-23T04:28:21.244Z,4.67
2022-12-23T04:31:34.420Z,4.70
2022-12-23T04:34:46.483Z,4.70
2022-12-23T04:37:58.668Z,4.72
2022-12-23T04:41:10.802Z,4.71
2022-12-23T04:44:22.847Z,4.69
2022-12-23T04:47:35.599Z,4.69
2022-12-23T04:50:48.679Z,4.65
2022-12-23T04:54:01.527Z,4.63
2022-12-23T04:57:13.925Z,4.61
2022-12-23T05:00:27.605Z,4.66
2022-12-23T05:03:40.380Z,4.64
2022-12-23T05:06:52.534Z,4.58
2022-12-23T05:10:05.253Z,4.58
2022-12-23T05:13:17.546Z,4.52
2022-12-23T05:16:31.438Z,4.48
2022-12-23T05:19:45.704Z,4.46
2022-12-23T05:22:57.908Z,4.39
2022-12-23T05:26:10.377Z,4.31
2022-12-23T05:29:24.079Z,4.27
2022-12-23T05:32:36.280Z,4.20
2022-12-23T05:35:49.538Z,4.17
2022-12-23T05:39:05.167Z,4.14
2022-12-23T05:42:19.484Z,4.03
2022-12-23T05:45:32.859Z,4.03
2022-12-23T05:48:45.390Z,3.93
2022-12-23T05:51:57.528Z,3.90
2022-12-23T05:55:11.662Z,3.90
2022-12-23T05:58:24.338Z,3.90
2022-12-23T06:01:36.607Z,3.84
2022-12-23T06:04:49.807Z,3.73
2022-12-23T06:08:02.020Z,3.68
2022-12-23T06:11:14.657Z,3.69
2022-12-23T06:14:29.038Z,3.61
2022-12-23T06:17:42.607Z,3.65
2022-12-23T06:20:56.432Z,3.65
2022-12-23T06:24:09.223Z,3.62
2022-12-23T06:27:21.716Z,3.56
2022-12-23T06:30:34.350Z,3.57
2022-12-23T06:33:47.905Z,3.62
2022-12-23T06:37:00.213Z,3.59
2022-12-23T06:40:16.303Z,3.61
2022-12-23T06:43:29.685Z,3.65
2022-12-23T06:46:41.924Z,3.68
2022-12-23T06:49:54.941Z,3.70
2022-12-23T06:53:07.270Z,3.72
2022-12-23T06:56:20.604Z,3.75
2022-12-23T06:59:33.790Z,3.74
2022-12-23T07:02:46.619Z,3.79
2022-12-23T07:05:59.775Z,3.80
2022-12-23T07:09:12.318Z,3.84
2022-12-23T07:12:24.779Z,3.82
2022-12-23T07:15:37.455Z,3.84
2022-12-23T07:18:51.461Z,3.87
2022-12-23T07:22:05.460Z,3.90
2022-12-23T07:25:18.725Z,3.93
2022-12-23T07:28:34.350Z,4.06
2022-12-23T07:31:49.543Z,4.09
2022-12-23T07:35:02.008Z,4.08
2022-12-23T07:38:14.998Z,4.14
2022-12-23T07:41:27.407Z,4.15
2022-12-23T07:44:39.522Z,4.22
2022-12-23T07:47:53.184Z,4.21
2022-12-23T07:51:10.024Z,4.22
2022-12-23T07:54:22.937Z,4.16
2022-12-23T08:18:03.953Z,4.04
2022-12-23T08:21:20.161Z,4.16
2022-12-23T08:28:53.615Z,4.38
2022-12-23T08:32:06.278Z,4.50
2022-12-23T08:35:19.008Z,4.58
2022-12-23T08:38:31.270Z,4.58
2022-12-23T08:41:46.662Z,4.57
2022-12-23T08:44:58.779Z,4.60
2022-12-23T08:48:11.451Z,4.64
2022-12-23T08:51:26.468Z,4.64
2022-12-23T08:54:38.639Z,4.65
2022-12-23T08:57:51.097Z,4.68
2022-12-23T09:01:05.703Z,4.79
2022-12-23T09:04:18.289Z,4.96
2022-12-23T09:07:31.958Z,5.09
2022-12-23T09:10:48.794Z,5.18
2022-12-23T09:14:02.294Z,5.18
2022-12-23T09:17:14.759Z,5.25
2022-12-23T09:20:27.108Z,5.30
2022-12-23T09:23:39.997Z,5.44
2022-12-23T09:26:52.443Z,5.49
2022-12-23T09:30:04.481Z,5.58
2022-12-23T09:33:17.212Z,5.69
2022-12-23T09:36:30.073Z,5.70
2022-12-23T09:39:41.988Z,5.76
2022-12-23T09:43:08.843Z,5.83
2022-12-23T09:46:25.537Z,5.82
2022-12-23T09:49:38.547Z,5.88
2022-12-23T09:52:57.305Z,5.81
2022-12-23T09:56:16.575Z,5.75
2022-12-23T09:59:44.427Z,5.65
2022-12-23T10:03:12.861Z,5.59
2022-12-23T10:06:29.783Z,5.54
2022-12-23T10:09:45.711Z,5.41
2022-12-23T10:12:59.731Z,5.38
2022-12-23T10:16:17.834Z,5.37
2022-12-23T10:19:34.911Z,5.37
2022-12-23T10:22:47.829Z,5.46
2022-12-23T10:26:00.693Z,5.50
2022-12-23T10:29:22.025Z,5.60
2022-12-23T10:32:40.437Z,5.98
2022-12-23T10:36:02.019Z,6.54
2022-12-23T10:39:21.761Z,6.89
2022-12-23T10:42:40.093Z,7.12
2022-12-23T10:45:58.971Z,7.31
2022-12-23T10:49:18.233Z,7.41
2022-12-23T10:52:40.835Z,7.52
2022-12-23T10:55:55.643Z,7.57
2022-12-23T10:59:08.668Z,7.65
2022-12-23T11:02:47.069Z,7.70
2022-12-23T11:06:04.963Z,7.72
2022-12-23T11:09:23.865Z,7.73
2022-12-23T11:12:47.405Z,7.73
2022-12-23T11:16:01.868Z,7.72
2022-12-23T11:19:20.118Z,7.78
2022-12-23T11:22:32.916Z,7.80
2022-12-23T11:25:47.529Z,7.79
2022-12-23T11:29:07.349Z,7.77
2022-12-23T11:32:27.212Z,7.78
2022-12-23T11:35:42.328Z,7.84
2022-12-23T11:39:04.044Z,8.02
2022-12-23T11:42:23.175Z,8.03
2022-12-23T11:45:41.139Z,8.09
2022-12-23T11:48:54.996Z,8.09
2022-12-23T11:52:19.617Z,8.12
2022-12-23T11:55:35.620Z,8.16
2022-12-23T11:58:55.246Z,8.16
2022-12-23T12:02:09.905Z,8.14
2022-12-23T12:05:32.196Z,8.14
2022-12-23T12:08:46.773Z,8.13
2022-12-23T12:12:02.937Z,8.14
2022-12-23T12:15:29.427Z,8.17
2022-12-23T12:18:42.072Z,8.22
2022-12-23T12:21:56.396Z,8.23
2022-12-23T12:25:27.417Z,8.29
2022-12-23T12:28:44.821Z,8.33
2022-12-23T12:32:01.289Z,8.37
2022-12-23T12:35:19.355Z,8.40
2022-12-23T12:38:36.364Z,8.42
2022-12-23T12:41:53.238Z,8.38
2022-12-23T12:45:13.696Z,8.35
2022-12-23T12:48:39.333Z,8.33
2022-12-23T12:51:58.321Z,8.31
2022-12-23T12:55:18.102Z,8.31
2022-12-23T12:58:31.208Z,8.29
2022-12-23T13:01:55.592Z,8.29
2022-12-23T13:05:40.628Z,8.33
2022-12-23T13:09:04.164Z,8.32
2022-12-23T13:12:23.981Z,8.30
2022-12-23T13:15:41.846Z,8.28
2022-12-23T13:19:00.048Z,8.33
2022-12-23T13:22:17.473Z,8.30
2022-12-23T13:25:33.823Z,8.32
2022-12-23T13:28:51.827Z,8.30
2022-12-23T13:32:08.409Z,8.31
2022-12-23T13:35:35.176Z,8.30
2022-12-23T13:39:05.789Z,8.33
2022-12-23T13:42:25.268Z,8.35
2022-12-23T13:45:41.744Z,8.37
2022-12-23T13:49:02.051Z,8.38
2022-12-23T13:52:19.742Z,8.39
2022-12-23T13:55:57.857Z,8.39
2022-12-23T13:59:14.606Z,8.39
2022-12-23T14:03:14.652Z,8.39
2022-12-23T14:06:48.434Z,8.39
2022-12-23T14:10:02.959Z,8.37
2022-12-23T14:13:21.439Z,8.36
2022-12-23T14:16:51.533Z,8.33
2022-12-23T14:20:29.175Z,8.31
2022-12-23T14:23:53.104Z,8.28
2022-12-23T14:27:42.033Z,8.24
2022-12-23T14:30:54.169Z,8.20
2022-12-23T14:34:22.438Z,8.15
2022-12-23T14:37:44.491Z,8.14
2022-12-23T14:41:23.307Z,8.06
2022-12-23T14:44:55.407Z,7.85
2022-12-23T14:48:07.558Z,7.65
2022-12-23T14:51:37.466Z,7.51
2022-12-23T14:55:06.333Z,7.47
2022-12-23T14:58:09.448Z,7.49
2022-12-23T15:01:25.067Z,7.49
2022-12-23T15:04:41.377Z,7.50
2022-12-23T15:07:55.550Z,7.55
2022-12-23T15:11:07.657Z,7.58
2022-12-23T15:14:27.917Z,7.60
2022-12-23T15:17:42.262Z,7.58
2022-12-23T15:21:05.947Z,7.53
2022-12-23T15:24:24.938Z,7.54
2022-12-23T15:27:40.154Z,7.52
2022-12-23T15:30:59.075Z,7.53
2022-12-23T15:34:17.406Z,7.52
2022-12-23T15:37:34.917Z,7.50
2022-12-23T15:40:44.932Z,7.51
2022-12-23T15:43:58.911Z,7.50
2022-12-23T15:47:35.626Z,7.48
2022-12-23T15:50:48.864Z,7.46
2022-12-23T15:54:06.114Z,7.42
2022-12-23T15:57:25.177Z,7.38
2022-12-23T16:00:42.891Z,7.35
2022-12-23T16:04:00.539Z,7.35
2022-12-23T16:07:24.230Z,7.35
2022-12-23T16:10:36.206Z,7.34
2022-12-23T16:13:59.992Z,7.32
2022-12-23T16:17:32.021Z,7.29
2022-12-23T16:20:51.030Z,7.26
2022-12-23T16:24:03.852Z,7.23
2022-12-23T16:27:24.880Z,7.16
2022-12-23T16:30:41.915Z,7.11
2022-12-23T16:33:54.851Z,6.94
2022-12-23T16:37:06.884Z,6.68
2022-12-23T16:40:21.864Z,6.55
2022-12-23T16:43:34.579Z,6.47
2022-12-23T16:46:51.709Z,6.38
2022-12-23T16:50:02.074Z,6.27
2022-12-23T16:53:16.934Z,6.27
2022-12-23T16:56:33.271Z,6.27
2022-12-23T16:59:47.073Z,6.27
2022-12-23T17:03:00.540Z,6.24
2022-12-23T17:06:17.032Z,6.14
2022-12-23T17:09:29.038Z,6.08
2022-12-23T17:12:41.087Z,6.01
2022-12-23T17:15:53.255Z,5.97
2022-12-23T17:19:05.785Z,5.95
2022-12-23T17:22:20.051Z,5.90
2022-12-23T17:25:32.693Z,5.92
2022-12-23T17:28:44.786Z,5.87
2022-12-23T17:31:58.447Z,5.86
2022-12-23T17:35:11.789Z,5.85
2022-12-23T17:38:24.693Z,5.85
2022-12-23T17:41:38.939Z,5.85
2022-12-23T17:44:51.447Z,5.81
2022-12-23T17:48:03.624Z,5.79
2022-12-23T17:51:20.254Z,5.69
2022-12-23T17:54:31.459Z,5.54
2022-12-23T17:57:43.985Z,5.42
2022-12-23T18:00:56.980Z,5.24
2022-12-23T18:04:09.101Z,5.17
2022-12-23T18:07:22.157Z,5.19
2022-12-23T18:10:38.274Z,5.25
2022-12-23T18:13:50.587Z,5.24
2022-12-23T18:17:05.432Z,5.15
2022-12-23T18:20:33.714Z,5.21
2022-12-23T18:23:47.735Z,5.34
2022-12-23T18:27:00.657Z,5.38
2022-12-23T18:30:16.513Z,5.44
2022-12-23T18:33:33.606Z,5.52
2022-12-23T18:37:02.909Z,5.63
2022-12-23T18:40:32.561Z,5.69
2022-12-23T18:43:53.665Z,5.83
2022-12-23T18:47:08.911Z,5.91
2022-12-23T18:50:21.268Z,6.00
2022-12-23T18:53:33.588Z,6.04
2022-12-23T18:56:46.830Z,6.03
2022-12-23T18:59:59.035Z,6.07
2022-12-23T19:03:13.149Z,6.08
2022-12-23T19:06:26.779Z,6.14
2022-12-23T19:09:38.992Z,6.19
2022-12-23T19:12:51.174Z,6.23
2022-12-23T19:16:03.424Z,6.26
2022-12-23T19:19:16.103Z,6.21
2022-12-23T19:22:30.019Z,6.11
2022-12-23T19:25:42.155Z,5.99
2022-12-23T19:29:02.186Z,5.91
2022-12-23T19:32:14.271Z,5.87
2022-12-23T19:35:26.558Z,5.82
2022-12-23T19:38:38.634Z,5.77
2022-12-23T19:41:51.370Z,5.69
2022-12-23T19:45:03.658Z,5.58
2022-12-23T19:48:15.835Z,5.51
2022-12-23T19:51:28.236Z,5.44
2022-12-23T19:54:40.552Z,5.44
2022-12-23T19:57:52.878Z,5.43
2022-12-23T20:01:16.759Z,5.47
2022-12-23T20:04:29.206Z,5.44
2022-12-23T20:07:43.263Z,5.43
2022-12-23T20:10:55.353Z,5.45
2022-12-23T20:14:09.110Z,5.46
2022-12-23T20:17:21.296Z,5.46
2022-12-23T20:20:37.761Z,5.45
2022-12-23T20:23:49.913Z,5.42
2022-12-23T20:27:05.098Z,5.43
2022-12-23T20:30:18.443Z,5.38
2022-12-23T20:33:30.472Z,5.38
2022-12-23T20:36:44.475Z,5.41
2022-12-23T20:39:57.111Z,5.40
2022-12-23T20:43:14.960Z,5.35
2022-12-23T20:46:24.496Z,5.28
2022-12-23T20:49:36.854Z,5.27
2022-12-23T20:52:48.931Z,5.28
2022-12-23T20:56:04.728Z,5.31
2022-12-23T20:59:16.780Z,5.31
2022-12-23T21:02:29.325Z,5.23
2022-12-23T21:05:41.623Z,5.22
2022-12-23T21:08:55.834Z,5.23
2022-12-23T21:12:08.341Z,5.09
2022-12-23T21:15:22.841Z,5.01
2022-12-23T21:18:35.476Z,4.98
2022-12-23T21:21:47.636Z,4.89
2022-12-23T21:24:59.663Z,4.78
2022-12-23T21:28:12.020Z,4.73
2022-12-23T21:31:27.415Z,4.73
2022-12-23T21:34:39.705Z,4.73
2022-12-23T21:37:51.933Z,4.77
2022-12-23T21:41:10.387Z,4.75
2022-12-23T21:44:22.928Z,4.66
2022-12-23T21:47:34.945Z,4.64
2022-12-23T21:50:48.277Z,4.66
2022-12-23T21:54:05.668Z,4.64
2022-12-23T21:57:18.597Z,4.64
2022-12-23T22:00:31.231Z,4.65
2022-12-23T22:03:44.286Z,4.64
2022-12-23T22:06:56.544Z,4.61
2022-12-23T22:10:09.333Z,4.53
2022-12-23T22:13:21.650Z,4.58
2022-12-23T22:16:36.610Z,4.59
2022-12-23T22:19:48.773Z,4.52
2022-12-23T22:23:00.742Z,4.50
2022-12-23T22:26:17.460Z,4.50
2022-12-23T22:29:28.758Z,4.46
2022-12-23T22:32:42.661Z,4.33
2022-12-23T22:36:02.481Z,4.27
2022-12-23T22:39:19.980Z,4.24
2022-12-23T22:42:29.778Z,4.21
2022-12-23T22:45:41.960Z,4.18
2022-12-23T22:48:59.020Z,4.18
2022-12-23T22:52:11.878Z,4.16
2022-12-23T22:55:24.294Z,4.17
2022-12-23T22:58:38.374Z,4.17
2022-12-23T23:01:53.797Z,4.14
2022-12-23T23:05:12.912Z,4.16
2022-12-23T23:08:22.843Z,4.18
2022-12-23T23:11:36.042Z,4.23
2022-12-23T23:14:57.537Z,4.17
2022-12-23T23:18:09.767Z,4.14
2022-12-23T23:21:22.073Z,4.26
2022-12-23T23:24:36.687Z,4.35
2022-12-23T23:27:48.730Z,4.30
2022-12-23T23:31:32.001Z,4.38
2022-12-23T23:34:14.778Z,4.37
2022-12-23T23:37:26.873Z,4.36
2022-12-23T23:40:39.088Z,4.38
2022-12-23T23:43:51.238Z,4.37
2022-12-23T23:47:03.760Z,4.38
2022-12-23T23:50:17.029Z,4.47
2022-12-23T23:53:29.108Z,4.49
2022-12-23T23:56:42.364Z,4.44
2022-12-23T23:59:54.649Z,4.38
